Flight Track Log - Related Links

Times and Time Zones

All times are in EST time to prevent confusion due to time zone crossing. See the LOG6852 flight status page for this flight to view local times or setup timezone preferences in your user account.

Time Position Orientation Groundspeed Altitude Reporting Facility
EST Latitude Longitude Course Direction KTS MPH feet Rate Location/Type
Sat 08:40:33 AM 56.6292 -6.5542 130° Southeast 1 1 9,500  Level FlightAware UK
Sat 08:40:51 AM 56.6220 -6.5384 130° Southeast 1 1 9,500  Level FlightAware UK
Sat 08:41:09 AM 56.6148 -6.5214 128° Southeast 1 1 9,500 167 Level FlightAware UK
Sat 08:41:27 AM 56.6077 -6.5046 128° Southeast 1 1 9,600  Climbing FlightAware UK
Sat 08:41:45 AM 56.6004 -6.4882 129° Southeast 1 1 9,500 -167 Descending FlightAware UK
Sat 08:42:03 AM 56.5929 -6.4714 129° Southeast 1 1 9,500  Level FlightAware UK
Sat 08:42:21 AM 56.5850 -6.4550 131° Southeast 1 1 9,500  Level FlightAware UK
Sat 08:42:39 AM 56.5761 -6.4400 137° Southeast 1 1 9,500  Level FlightAware UK
Sat 08:42:57 AM 56.5681 -6.4241 132° Southeast 1 1 9,500  Level FlightAware UK
Sat 08:43:15 AM 56.5602 -6.4079 132° Southeast 1 1 9,500  Level FlightAware UK
Sat 08:43:33 AM 56.5519 -6.3918 133° Southeast 1 1 9,500  Level FlightAware UK
Sat 08:43:51 AM 56.5441 -6.3746 129° Southeast 1 1 9,500  Level FlightAware UK
Sat 08:44:09 AM 56.5372 -6.3554 123° Southeast 1 1 9,500  Level FlightAware UK
Sat 08:44:27 AM 56.5295 -6.3390 131° Southeast 1 1 9,500 -167 Level FlightAware UK
Sat 08:44:45 AM 56.5219 -6.3226 130° Southeast 1 1 9,400  Descending FlightAware UK
Sat 08:45:03 AM 56.5153 -6.3053 125° Southeast 1 1 9,500 333 Climbing FlightAware UK
Sat 08:45:21 AM 56.5093 -6.2878 122° Southeast 1 1 9,600 167 Climbing FlightAware UK
Sat 08:45:39 AM 56.5029 -6.2705 124° Southeast 1 1 9,600  Level FlightAware UK
Sat 08:45:57 AM 56.4959 -6.2535 127° Southeast 1 1 9,600  Level FlightAware UK
Sat 08:46:15 AM 56.4880 -6.2372 131° Southeast 1 1 9,600  Level FlightAware UK
Sat 08:46:33 AM 56.4808 -6.2203 128° Southeast 1 1 9,600 -333 Level FlightAware UK
Sat 08:46:51 AM 56.4737 -6.2032 127° Southeast 1 1 9,400 -167 Descending FlightAware UK
Sat 08:47:09 AM 56.4667 -6.1863 127° Southeast 1 1 9,500 -167 Climbing FlightAware UK
Sat 08:47:27 AM 56.4594 -6.1696 128° Southeast 1 1 9,300 -125 Descending FlightAware UK
Sat 08:47:57 AM 56.4465 -6.1414 129° Southeast 1 1 9,400 250 Climbing FlightAware UK
Sat 08:48:15 AM 56.4390 -6.1240 128° Southeast 1 1 9,500 -167 Climbing FlightAware UK
Sat 08:48:33 AM 56.4314 -6.1069 129° Southeast 1 1 9,300  Descending FlightAware UK
Sat 08:48:51 AM 56.4223 -6.0923 138° Southeast 1 1 9,500 333 Climbing FlightAware UK
Sat 08:49:09 AM 56.4139 -6.0771 135° Southeast 1 1 9,500 167 Level FlightAware UK
Sat 08:49:27 AM 56.4066 -6.0605 128° Southeast 1 1 9,600  Climbing FlightAware UK
Sat 08:49:45 AM 56.3996 -6.0435 126° Southeast 1 1 9,500 -833 Descending FlightAware UK
Sat 08:50:03 AM 56.3928 -6.0251 124° Southeast 1 1 9,100 -1,000 Descending FlightAware UK
Sat 08:50:21 AM 56.3858 -6.0053 122° Southeast 1 1 8,900 -500 Descending FlightAware UK
Sat 08:50:39 AM 56.3778 -5.9871 129° Southeast 1 1 8,800 -500 Descending FlightAware UK
Sat 08:50:57 AM 56.3691 -5.9695 132° Southeast 1 1 8,600 -667 Descending FlightAware UK
Sat 08:51:15 AM 56.3604 -5.9513 131° Southeast 1 1 8,400 -833 Descending FlightAware UK
Sat 08:51:33 AM 56.3515 -5.9334 132° Southeast 1 1 8,100 -667 Descending FlightAware UK
Sat 08:51:51 AM 56.3428 -5.9152 131° Southeast 1 1 8,000 -667 Descending FlightAware UK
Sat 08:52:09 AM 56.3348 -5.8965 128° Southeast 1 1 7,700 -833 Descending FlightAware UK
Sat 08:52:27 AM 56.3265 -5.8781 129° Southeast 1 1 7,500 -167 Descending FlightAware UK
Sat 08:52:45 AM 56.3183 -5.8599 129° Southeast 1 1 7,600 -167 Climbing FlightAware UK
Sat 08:53:03 AM 56.3108 -5.8438 130° Southeast 1 1 7,400 -167 Descending FlightAware UK
Sat 08:53:21 AM 56.3038 -5.8268 126° Southeast 1 1 7,500 -167 Climbing FlightAware UK
Sat 08:53:39 AM 56.2971 -5.8097 125° Southeast 1 1 7,300 -167 Descending FlightAware UK
Sat 08:53:57 AM 56.2901 -5.7935 128° Southeast 1 1 7,400 286 Climbing FlightAware UK
Sat 08:54:21 AM 56.2806 -5.7724 129° Southeast 1 1 7,500  Climbing FlightAware UK
Sat 08:54:39 AM 56.2740 -5.7557 126° Southeast 1 1 7,400 -167 Descending FlightAware UK
Sat 08:54:57 AM 56.2674 -5.7392 126° Southeast 1 1 7,400 167 Level FlightAware UK
Sat 08:55:15 AM 56.2603 -5.7232 129° Southeast 1 1 7,500 167 Climbing FlightAware UK
Sat 08:55:33 AM 56.2536 -5.7067 126° Southeast 1 1 7,500  Level FlightAware UK
Sat 08:55:51 AM 56.2471 -5.6896 124° Southeast 1 1 7,500  Level FlightAware UK
Sat 08:56:09 AM 56.2407 -5.6726 124° Southeast 1 1 7,500  Level FlightAware UK
Sat 08:56:27 AM 56.2335 -5.6559 128° Southeast 1 1 7,500  Level FlightAware UK
Sat 08:56:45 AM 56.2260 -5.6394 129° Southeast 1 1 7,500  Level FlightAware UK
Sat 08:57:03 AM 56.2175 -5.6240 135° Southeast 1 1 7,500  Level FlightAware UK
Sat 08:57:21 AM 56.2097 -5.6077 130° Southeast 1 1 7,500  Level FlightAware UK
Sat 08:57:39 AM 56.2025 -5.5911 128° Southeast 1 1 7,500  Level FlightAware UK
Sat 08:57:57 AM 56.1962 -5.5745 124° Southeast 1 1 7,500  Level FlightAware UK
Sat 08:58:15 AM 56.1902 -5.5574 122° Southeast 1 1 7,500 -167 Level FlightAware UK
Sat 08:58:33 AM 56.1834 -5.5408 126° Southeast 1 1 7,400 -143 Descending FlightAware UK
Sat 08:58:57 AM 56.1744 -5.5187 126° Southeast 1 1 7,400 143 Level FlightAware UK
Sat 08:59:15 AM 56.1679 -5.5020 125° Southeast 1 1 7,500 167 Climbing FlightAware UK
Sat 08:59:33 AM 56.1627 -5.4846 118° Southeast 1 1 7,500 -167 Level FlightAware UK
Sat 08:59:51 AM 56.1595 -5.4658 107° East 1 1 7,400  Descending FlightAware UK
Sat 09:00:09 AM 56.1576 -5.4456 100° East 1 1 7,500 167 Climbing FlightAware UK
Sat 09:00:27 AM 56.1552 -5.4259 102° East 1 1 7,500 -333 Level FlightAware UK
Sat 09:00:45 AM 56.1498 -5.4086 119° Southeast 1 1 7,300  Descending FlightAware UK
Sat 09:01:03 AM 56.1441 -5.3913 120° Southeast 1 1 7,500 167 Climbing FlightAware UK
Sat 09:01:21 AM 56.1386 -5.3752 122° Southeast 1 1 7,400 -167 Descending FlightAware UK
Sat 09:01:39 AM 56.1306 -5.3626 139° Southeast 1 1 7,400  Level FlightAware UK
Sat 09:01:57 AM 56.1233 -5.3486 133° Southeast 1 1 7,400  Level FlightAware UK
Sat 09:02:15 AM 56.1162 -5.3345 132° Southeast 1 1 7,400  Level FlightAware UK
Sat 09:02:33 AM 56.1090 -5.3210 134° Southeast 1 1 7,400 -667 Level FlightAware UK
Sat 09:02:51 AM 56.1023 -5.3061 129° Southeast 1 1 7,000 -833 Descending FlightAware UK
Sat 09:03:09 AM 56.0950 -5.2902 130° Southeast 1 1 6,900 -333 Descending FlightAware UK
Sat 09:03:27 AM 56.0881 -5.2740 127° Southeast 1 1 6,800  Descending FlightAware UK
Sat 09:03:45 AM 56.0808 -5.2595 132° Southeast 1 1 6,900 -167 Climbing FlightAware UK
Sat 09:04:03 AM 56.0733 -5.2451 133° Southeast 1 1 6,700 -375 Descending FlightAware UK
Sat 09:04:33 AM 56.0627 -5.2209 128° Southeast 1 1 6,600  Descending FlightAware UK
Sat 09:04:51 AM 56.0557 -5.2080 134° Southeast 1 1 6,700 167 Climbing FlightAware UK
Sat 09:05:09 AM 56.0487 -5.1943 132° Southeast 1 1 6,700  Level FlightAware UK
Sat 09:05:27 AM 56.0422 -5.1800 129° Southeast 1 1 6,700  Level FlightAware UK
Sat 09:05:45 AM 56.0352 -5.1663 133° Southeast 1 1 6,700  Level FlightAware UK
Sat 09:06:03 AM 56.0282 -5.1524 132° Southeast 1 1 6,700  Level FlightAware UK
Sat 09:06:21 AM 56.0216 -5.1381 129° Southeast 1 1 6,700  Level FlightAware UK
Sat 09:06:39 AM 56.0152 -5.1244 130° Southeast 1 1 6,700  Level FlightAware UK
Sat 09:06:57 AM 56.0085 -5.1107 131° Southeast 1 1 6,700 -333 Level FlightAware UK
Sat 09:07:15 AM 56.0020 -5.0968 130° Southeast 1 1 6,500 -667 Descending FlightAware UK
Sat 09:07:33 AM 55.9942 -5.0819 133° Southeast 1 1 6,300 -500 Descending FlightAware UK
Sat 09:07:51 AM 55.9868 -5.0672 132° Southeast 1 1 6,200 -500 Descending FlightAware UK
Sat 09:08:09 AM 55.9791 -5.0518 132° Southeast 1 1 6,000 -667 Descending FlightAware UK
Sat 09:08:27 AM 55.9712 -5.0371 134° Southeast 1 1 5,800 -500 Descending FlightAware UK
Sat 09:08:45 AM 55.9630 -5.0226 135° Southeast 1 1 5,700  Descending FlightAware UK
Sat 09:09:03 AM 55.9552 -5.0090 136° Southeast 1 1 5,800  Climbing FlightAware UK
Sat 09:09:21 AM 55.9483 -4.9950 131° Southeast 1 1 5,700 -143 Descending FlightAware UK
Sat 09:09:45 AM 55.9399 -4.9766 129° Southeast 1 1 5,700  Level FlightAware UK
Sat 09:10:03 AM 55.9336 -4.9627 129° Southeast 1 1 5,700  Level FlightAware UK
Sat 09:10:21 AM 55.9271 -4.9497 132° Southeast 1 1 5,700  Level FlightAware UK
Sat 09:10:39 AM 55.9204 -4.9363 131° Southeast 1 1 5,700  Level FlightAware UK
Sat 09:11:03 AM 55.9122 -4.9168 127° Southeast 1 1 5,700 -286 Level FlightAware UK
Sat 09:11:21 AM 55.9059 -4.9009 125° Southeast 1 1 5,500 -167 Descending FlightAware UK
Sat 09:11:39 AM 55.8992 -4.8859 129° Southeast 1 1 5,600 333 Climbing FlightAware UK
Sat 09:11:57 AM 55.8907 -4.8770 150° Southeast 1 1 5,700 167 Climbing FlightAware UK
Sat 09:12:15 AM 55.8824 -4.8676 147° Southeast 1 1 5,700  Level FlightAware UK
Sat 09:12:33 AM 55.8739 -4.8585 149° Southeast 1 1 5,700 -333 Level FlightAware UK
Sat 09:12:51 AM 55.8651 -4.8500 152° Southeast 1 1 5,500 -667 Descending FlightAware UK
Sat 09:13:09 AM 55.8558 -4.8410 152° Southeast 1 1 5,300 -667 Descending FlightAware UK
Sat 09:13:27 AM 55.8456 -4.8335 157° South 1 1 5,100 -667 Descending FlightAware UK
Sat 09:13:45 AM 55.8360 -4.8252 154° Southeast 1 1 4,900 -500 Descending FlightAware UK
Sat 09:14:03 AM 55.8271 -4.8176 154° Southeast 1 1 4,800 -667 Descending FlightAware UK
Sat 09:14:21 AM 55.8186 -4.8098 153° Southeast 1 1 4,500 -833 Descending FlightAware UK
Sat 09:14:39 AM 55.8101 -4.8024 154° Southeast 1 1 4,300 -500 Descending FlightAware UK
Sat 09:14:57 AM 55.8015 -4.7940 151° Southeast 1 1 4,200 -667 Descending FlightAware UK
Sat 09:15:15 AM 55.7933 -4.7845 147° Southeast 1 1 3,900 -667 Descending FlightAware UK
Sat 09:15:33 AM 55.7850 -4.7734 143° Southeast 1 1 3,800 -167 Descending FlightAware UK
Sat 09:15:51 AM 55.7784 -4.7606 133° Southeast 1 1 3,800  Level FlightAware UK
Sat 09:16:09 AM 55.7806 -4.7417 78° East 1 1 3,800  Level FlightAware UK
Sat 09:16:27 AM 55.7827 -4.7235 78° East 1 1 3,800  Level FlightAware UK
Sat 09:16:45 AM 55.7828 -4.7040 90° East 1 1 3,800 -333 Level FlightAware UK
Sat 09:17:03 AM 55.7833 -4.6848 88° East 1 1 3,600 -667 Descending FlightAware UK
Sat 09:17:21 AM 55.7828 -4.6655 92° East 1 1 3,400 -500 Descending FlightAware UK
Sat 09:17:39 AM 55.7826 -4.6459 91° East 1 1 3,300 -333 Descending FlightAware UK
Sat 09:17:57 AM 55.7817 -4.6267 95° East 1 1 3,200 -429 Descending FlightAware UK
Sat 09:18:21 AM 55.7819 -4.6016 89° East 1 1 3,000 -429 Descending FlightAware UK
Sat 09:18:39 AM 55.7898 -4.5854 49° Northeast 1 1 2,900 -500 Descending FlightAware UK
Sat 09:18:57 AM 55.7991 -4.5691 45° Northeast 1 1 2,700 -667 Descending FlightAware UK
Sat 09:19:15 AM 55.8053 -4.5509 59° Northeast 1 1 2,500 -667 Descending FlightAware UK
Sat 09:19:33 AM 55.8156 -4.5383 34° Northeast 1 1 2,300 -833 Descending FlightAware UK
Sat 09:19:51 AM 55.8235 -4.5246 44° Northeast 1 1 2,000 -1,000 Descending FlightAware UK
Sat 09:20:09 AM 55.8288 -4.5105 56° Northeast 1 1 1,700 -833 Descending FlightAware UK
Sat 09:20:27 AM 55.8355 -4.5001 41° Northeast 1 1 1,500 -333 Descending FlightAware UK
Sat 09:20:45 AM 55.8410 -4.4908 44° Northeast 1 1 1,500 -333 Level FlightAware UK
Sat 09:21:03 AM 55.8455 -4.4826 45° Northeast 1 1 1,300 -500 Descending FlightAware UK
Sat 09:21:21 AM 55.8500 -4.4742 47° Northeast 1 1 1,200 -500 Descending FlightAware UK
Sat 09:21:39 AM 55.8542 -4.4662 47° Northeast 1 1 1,000 -500 Descending FlightAware UK
Sat 09:21:57 AM 55.8585 -4.4580 47° Northeast 1 1 900 -333 Descending FlightAware UK
Sat 09:22:15 AM 55.8629 -4.4497 47° Northeast 1 1 800 -333 Descending FlightAware UK
Sat 09:22:33 AM 55.8672 -4.4415 47° Northeast 1 1 700  Descending FlightAware UK
Sat 09:22:51 AM 55.8695 -4.4374 46° Northeast 1 1 800 167 Climbing FlightAware UK
Sat 09:23:09 AM 55.8693 -4.4363 104° East 1 1 800  Level FlightAware UK
Sat 09:23:27 AM 55.8684 -4.4362 175° South 1 1 800  Level FlightAware UK
Sat 09:25:00 AM 55.8719 -4.4331 26° Northeast  Level Estimated
Sat 09:32:00 AM 55.8719 -4.4331 29° Northeast  Level Estimated
Sat 09:33:00 AM 55.8719 -4.4331 29° Northeast  Level Estimated

Login

Don't have an account? Register now (free) for customized features, flight alerts, and more!